Terminal Aerodrome Forecast
Issued by NWS

Home | Current Version | Previous Version | Text Only | Print | Product List | Glossary Off
Versions: 1 2 3 4 5 6 7 8 9 10 11 12 13 14 15 16 17 18 19 20 21 22 23

000
FTUS42 KMHX 021753
TAFISO
TAF
KISO 021753Z 0218/0318 25005KT P6SM SCT050
     FM022300 18004KT P6SM BKN050
     FM030300 VRB03KT P6SM BKN080
     FM030700 00000KT 4SM BR SCT080
     FM031300 34005KT P6SM SCT050
      AMD LTD TO CLD VIS AND WIND=

USA.gov is the U.S. government's official web portal to all federal, state and local government web resources and services.